San Francisco, California
Traffic Map
Current Weather Conditions
San Francisco, California
Broken Clouds
Broken Clouds
49°
Feels Like: 47°
Wind Chill: 47° Ceiling: 11000
Heat Index: 49° Visibility: 10mi
Dew Point: 43° Wind: 5mph
Humidity: 80% Direction: 190° (S)
Pressure: 29.68in Gusts: 0mph
Raw Report DataKSFO 230256Z 19004KT 10SM SCT023 BKN110 BKN150 09/06 A2968 RMK AO2 SLP052 60006 T00940061 53001 $
Traffic Incident Summary
Active as of:
Severity:
Category:
InformationThere was an issue retrieving the traffic information for this location. Please try a different location or try again shortly.
Advertisements
Track Severe Weather on mobile